ESMQ

Kalmar Airport

Sweden
METAR ESMQ 200650Z 04007KT 2500 -SN FEW005 BKN007 OVC009 M01/M01 Q1025
Observed Flight Rules
Feb-20 @ 06:50 UTC (22 minutes ago) Instrument Flight Rules
Wind Visibility Clouds Conditions
40° at 7 knots 2,494 meters
  • Few at 500' AGL
  • Broken at 700' AGL
  • Overcast at 900' AGL
  • Light Snow
Temperatures Readings
Current -1°C / 30°F
Dewpoint -1°C / 30°F
Humidity 100%
Altimeter 30.27" Hg
Pressure 1025 hPa
Elevation 16
METAR ESMQ 200650Z 04007KT 2500 -SN FEW005 BKN007 OVC009 M01/M01 Q1025
Observed Flight Rules
Feb-20 @ 06:50 UTC
(22 minutes ago)
IFR
Wind Visibility
40° at 7 knots 2,494 meters
Clouds
  • Few at 500' AGL
  • Broken at 700' AGL
  • Overcast at 900' AGL
Conditions
  • Light Snow
Temperature Dewpoint
-1°C / 30°F -1°C / 30°F
Humidity Altimeter Pressure
100% 30.27" Hg 1025 hPa